createdAt,value
2023-01-09T00:00:40.327Z,1.00
2023-01-09T00:03:07.771Z,0.80
2023-01-09T00:05:36.445Z,0.90
2023-01-09T00:08:03.904Z,1.00
2023-01-09T00:10:31.285Z,1.07
2023-01-09T00:12:58.687Z,1.00
2023-01-09T00:15:25.998Z,1.10
2023-01-09T00:17:53.377Z,1.20
2023-01-09T00:20:20.907Z,1.07
2023-01-09T00:22:49.586Z,1.13
2023-01-09T00:25:16.951Z,1.00
2023-01-09T00:27:44.288Z,0.90
2023-01-09T00:30:12.162Z,1.00
2023-01-09T00:32:39.509Z,1.10
2023-01-09T00:35:07.439Z,0.90
2023-01-09T00:37:34.788Z,1.10
2023-01-09T00:40:03.512Z,1.23
2023-01-09T00:42:33.015Z,1.13
2023-01-09T00:45:02.715Z,1.13
2023-01-09T00:47:31.994Z,1.10
2023-01-09T00:50:00.732Z,1.30
2023-01-09T00:52:28.541Z,1.47
2023-01-09T00:54:55.921Z,1.30
2023-01-09T00:57:24.766Z,1.40
2023-01-09T00:59:52.796Z,1.40
2023-01-09T01:02:20.556Z,1.40
2023-01-09T01:05:05.569Z,1.60
2023-01-09T01:07:43.196Z,1.93
2023-01-09T01:10:12.220Z,1.70
2023-01-09T01:12:41.210Z,1.73
2023-01-09T01:15:09.403Z,1.80
2023-01-09T01:17:37.401Z,2.20
2023-01-09T01:20:05.231Z,1.80
2023-01-09T01:22:32.603Z,2.13
2023-01-09T01:24:59.995Z,2.40
2023-01-09T01:27:28.962Z,2.53
2023-01-09T01:29:57.750Z,2.20
2023-01-09T01:32:25.261Z,2.50
2023-01-09T01:34:52.616Z,2.33
2023-01-09T01:37:21.853Z,2.40
2023-01-09T01:39:49.258Z,2.70
2023-01-09T01:42:16.616Z,2.67
2023-01-09T01:45:02.451Z,3.30
2023-01-09T01:47:32.572Z,3.00
2023-01-09T01:50:00.579Z,3.43
2023-01-09T01:52:28.385Z,3.30
2023-01-09T01:54:55.801Z,3.10
2023-01-09T01:57:23.354Z,3.20
2023-01-09T01:59:52.522Z,3.40
2023-01-09T02:02:23.286Z,3.70
2023-01-09T02:04:52.125Z,3.00
2023-01-09T02:07:19.567Z,3.43
2023-01-09T02:09:46.984Z,3.40
2023-01-09T02:12:16.344Z,3.93
2023-01-09T02:14:43.709Z,3.97
2023-01-09T02:17:16.089Z,4.00
2023-01-09T02:19:54.372Z,4.63
2023-01-09T02:22:26.736Z,4.10
2023-01-09T02:25:04.493Z,4.27
2023-01-09T02:27:54.267Z,4.10
2023-01-09T02:30:26.756Z,3.40
2023-01-09T02:32:59.062Z,3.23
2023-01-09T02:35:38.779Z,3.63
2023-01-09T02:38:10.725Z,3.43
2023-01-09T02:40:40.409Z,3.60
2023-01-09T02:43:08.096Z,4.40
2023-01-09T02:45:36.766Z,3.90
2023-01-09T02:48:04.253Z,3.17
2023-01-09T02:50:34.109Z,3.60
2023-01-09T02:53:11.393Z,3.00
2023-01-09T02:55:46.648Z,2.83
2023-01-09T02:58:19.393Z,3.03
2023-01-09T03:00:50.656Z,2.77
2023-01-09T03:03:22.029Z,3.47
2023-01-09T03:05:54.412Z,3.30
2023-01-09T03:08:23.990Z,3.73
2023-01-09T03:10:54.114Z,3.53
2023-01-09T03:13:24.038Z,3.67
2023-01-09T03:15:54.785Z,3.07
2023-01-09T03:18:23.392Z,3.67
2023-01-09T03:20:51.038Z,2.83
2023-01-09T03:23:18.404Z,2.80
2023-01-09T03:25:45.792Z,2.60
2023-01-09T03:28:19.377Z,2.70
2023-01-09T03:30:46.704Z,2.83
2023-01-09T03:33:15.349Z,2.90
2023-01-09T03:35:42.694Z,2.40
2023-01-09T03:38:10.052Z,2.50
2023-01-09T03:40:37.498Z,2.73
2023-01-09T03:43:04.911Z,2.70
2023-01-09T03:45:32.340Z,2.30
2023-01-09T03:47:59.718Z,2.70
2023-01-09T03:50:28.418Z,2.40
2023-01-09T03:52:55.755Z,2.30
2023-01-09T03:55:23.106Z,2.50
2023-01-09T03:57:50.425Z,2.13
2023-01-09T04:00:18.339Z,2.10
2023-01-09T04:02:45.669Z,1.60
2023-01-09T04:05:12.998Z,1.40
2023-01-09T04:07:41.836Z,1.50
2023-01-09T04:10:09.893Z,1.40
2023-01-09T04:12:37.204Z,1.30
2023-01-09T04:15:04.867Z,1.40
2023-01-09T04:17:32.225Z,1.50
2023-01-09T04:20:00.123Z,1.27
2023-01-09T04:22:27.482Z,1.60
2023-01-09T04:24:56.165Z,1.70
2023-01-09T04:27:23.542Z,1.40
2023-01-09T04:29:50.943Z,1.50
2023-01-09T04:32:18.258Z,1.30
2023-01-09T04:34:45.595Z,1.30
2023-01-09T04:37:13.040Z,1.30
2023-01-09T04:39:41.736Z,1.20
2023-01-09T04:42:10.431Z,1.17
2023-01-09T04:44:37.753Z,1.30
2023-01-09T04:47:05.523Z,1.40
2023-01-09T04:49:32.885Z,1.33
2023-01-09T04:52:00.222Z,1.30
2023-01-09T04:54:27.695Z,1.30
2023-01-09T04:56:55.091Z,1.70
2023-01-09T04:59:24.031Z,1.67
2023-01-09T05:01:54.698Z,1.37
2023-01-09T05:04:22.176Z,0.83
2023-01-09T05:06:49.565Z,1.00
2023-01-09T05:09:16.954Z,0.70
2023-01-09T05:11:44.359Z,0.80
2023-01-09T05:14:12.802Z,0.77
2023-01-09T05:16:41.526Z,0.60
2023-01-09T05:19:08.876Z,0.70
2023-01-09T05:21:36.239Z,0.90
2023-01-09T05:24:03.658Z,0.80
2023-01-09T05:26:31.749Z,0.63
2023-01-09T05:28:59.097Z,0.60
2023-01-09T05:31:27.326Z,0.50
2023-01-09T05:33:56.068Z,0.60
2023-01-09T05:36:23.411Z,0.80
2023-01-09T05:38:50.752Z,0.60
2023-01-09T05:41:18.083Z,0.70
2023-01-09T05:43:45.482Z,0.60
2023-01-09T05:46:12.796Z,0.50
2023-01-09T05:48:40.120Z,0.50
2023-01-09T05:51:08.763Z,0.47
2023-01-09T05:53:36.092Z,0.43
2023-01-09T05:56:03.460Z,0.50
2023-01-09T05:58:30.798Z,0.50
2023-01-09T06:00:59.022Z,0.57
2023-01-09T06:03:26.474Z,0.50
2023-01-09T06:05:53.830Z,0.60
2023-01-09T06:08:22.619Z,0.80
2023-01-09T06:10:49.963Z,0.60
2023-01-09T06:13:17.289Z,0.70
2023-01-09T06:15:44.654Z,0.93
2023-01-09T06:18:11.982Z,0.73
2023-01-09T06:20:39.326Z,0.67
2023-01-09T06:23:06.679Z,0.70
2023-01-09T06:25:35.473Z,0.60
2023-01-09T06:28:02.821Z,0.70
2023-01-09T06:30:30.202Z,0.60
2023-01-09T06:32:57.555Z,0.60
2023-01-09T06:35:24.901Z,0.50
2023-01-09T06:37:52.274Z,1.13
2023-01-09T06:40:21.106Z,0.60
2023-01-09T06:42:50.318Z,0.63
2023-01-09T06:45:17.726Z,0.50
2023-01-09T06:47:45.397Z,0.50
2023-01-09T06:50:13.142Z,0.50
2023-01-09T06:52:40.568Z,0.67
2023-01-09T06:55:08.636Z,3.87
2023-01-09T06:57:36.035Z,1.53
2023-01-09T07:00:05.349Z,0.90
2023-01-09T07:02:32.688Z,0.60
2023-01-09T07:05:00.112Z,0.87
2023-01-09T07:07:27.527Z,0.70
2023-01-09T07:09:54.885Z,0.90
2023-01-09T07:12:22.239Z,0.80
2023-01-09T07:14:49.646Z,0.93
2023-01-09T07:17:18.341Z,0.80
2023-01-09T07:19:45.691Z,0.70
2023-01-09T07:22:13.104Z,0.80
2023-01-09T07:24:40.601Z,0.80
2023-01-09T07:27:07.952Z,0.60
2023-01-09T07:29:35.390Z,0.60
2023-01-09T07:32:03.025Z,0.90
2023-01-09T07:34:31.780Z,0.60
2023-01-09T07:36:59.110Z,0.70
2023-01-09T07:39:27.972Z,0.73
2023-01-09T07:41:55.289Z,0.90
2023-01-09T07:44:22.631Z,0.70
2023-01-09T07:46:50.111Z,0.90
2023-01-09T07:49:17.583Z,1.40
2023-01-09T07:51:48.228Z,1.03
2023-01-09T07:54:16.243Z,0.80
2023-01-09T07:56:43.614Z,0.80
2023-01-09T07:59:11.066Z,0.90
2023-01-09T08:01:38.499Z,0.80
2023-01-09T08:04:05.899Z,0.80
2023-01-09T08:06:33.409Z,1.20
2023-01-09T08:09:02.283Z,0.90
2023-01-09T08:11:29.685Z,0.90
2023-01-09T08:13:57.028Z,0.90
2023-01-09T08:16:24.386Z,1.00
2023-01-09T08:18:52.032Z,0.93
2023-01-09T08:21:19.723Z,0.90
2023-01-09T08:23:48.156Z,0.90
2023-01-09T08:26:18.469Z,1.03
2023-01-09T08:28:46.120Z,1.53
2023-01-09T08:31:13.544Z,2.10
2023-01-09T08:33:40.951Z,1.13
2023-01-09T08:36:08.668Z,2.30
2023-01-09T08:38:36.086Z,2.20
2023-01-09T08:41:23.478Z,1.70
2023-01-09T08:44:15.041Z,1.50
2023-01-09T08:47:00.986Z,0.80
2023-01-09T08:49:28.419Z,0.90
2023-01-09T08:51:55.794Z,1.20
2023-01-09T08:54:23.175Z,1.00
2023-01-09T08:56:50.561Z,1.40
2023-01-09T08:59:19.212Z,1.00
2023-01-09T09:01:46.701Z,1.00
2023-01-09T09:04:14.125Z,0.90
2023-01-09T09:06:41.571Z,0.80
2023-01-09T09:09:08.897Z,1.43
2023-01-09T09:11:36.550Z,1.00
2023-01-09T09:14:25.674Z,0.80
2023-01-09T09:16:54.436Z,0.80
2023-01-09T09:19:22.122Z,0.90
2023-01-09T09:21:49.483Z,0.80
2023-01-09T09:24:16.828Z,0.87
2023-01-09T09:26:44.780Z,0.80
2023-01-09T09:29:12.307Z,0.87
2023-01-09T09:31:39.738Z,1.20
2023-01-09T09:34:08.696Z,0.70
2023-01-09T09:36:36.083Z,0.80
2023-01-09T09:39:03.678Z,1.10
2023-01-09T09:41:56.179Z,0.70
2023-01-09T09:44:53.513Z,1.00
2023-01-09T09:47:27.080Z,0.80
2023-01-09T09:50:01.494Z,0.90
2023-01-09T09:52:31.823Z,0.93
2023-01-09T09:55:02.415Z,0.70
2023-01-09T09:57:33.600Z,1.17
2023-01-09T10:00:01.356Z,0.90
2023-01-09T10:02:30.115Z,0.73
2023-01-09T10:05:00.680Z,0.73
2023-01-09T10:07:29.721Z,0.60
2023-01-09T10:10:00.275Z,0.70
2023-01-09T10:12:29.095Z,0.83
2023-01-09T10:14:57.277Z,0.67
2023-01-09T10:17:31.070Z,0.60
2023-01-09T10:20:08.383Z,0.60
2023-01-09T10:22:42.093Z,0.90
2023-01-09T10:25:14.038Z,0.57
2023-01-09T10:27:54.906Z,0.70
2023-01-09T10:30:26.887Z,0.43
2023-01-09T10:33:01.491Z,0.63
2023-01-09T10:35:47.950Z,0.70
2023-01-09T10:38:17.593Z,0.63
2023-01-09T10:40:47.860Z,0.63
2023-01-09T10:43:19.657Z,0.60
2023-01-09T10:45:50.717Z,0.60
2023-01-09T10:48:20.803Z,0.40
2023-01-09T10:50:50.162Z,0.60
2023-01-09T10:53:21.025Z,0.83
2023-01-09T10:55:49.090Z,0.70
2023-01-09T10:58:17.610Z,0.67
2023-01-09T11:00:45.258Z,0.67
2023-01-09T11:03:13.386Z,0.60
2023-01-09T11:05:40.818Z,0.90
2023-01-09T11:08:13.664Z,0.83
2023-01-09T11:10:48.206Z,0.77
2023-01-09T11:13:16.454Z,0.60
2023-01-09T11:15:44.920Z,0.57
2023-01-09T11:18:25.355Z,0.47
2023-01-09T11:20:52.742Z,0.50
2023-01-09T11:23:25.962Z,0.57
2023-01-09T11:25:53.876Z,0.90
2023-01-09T11:28:21.439Z,0.70
2023-01-09T11:30:52.758Z,0.50
2023-01-09T11:33:22.554Z,0.60
2023-01-09T11:35:54.525Z,0.53
2023-01-09T11:38:21.883Z,0.53
2023-01-09T11:40:51.717Z,0.67
2023-01-09T11:43:21.051Z,1.20
2023-01-09T11:46:00.614Z,0.70
2023-01-09T11:48:36.452Z,0.93
2023-01-09T11:51:04.816Z,0.60
2023-01-09T11:53:45.556Z,0.70
2023-01-09T11:56:15.341Z,0.70
2023-01-09T11:58:43.338Z,0.60
2023-01-09T12:01:19.143Z,0.70
2023-01-09T12:03:54.593Z,0.40
2023-01-09T12:06:27.927Z,0.47
2023-01-09T12:08:57.040Z,0.60
2023-01-09T12:11:28.348Z,0.80
2023-01-09T12:14:03.189Z,0.60
2023-01-09T12:16:33.419Z,0.53
2023-01-09T12:19:11.977Z,1.13
2023-01-09T12:21:42.579Z,0.60
2023-01-09T12:24:27.402Z,0.50
2023-01-09T12:27:02.455Z,0.40
2023-01-09T12:29:35.957Z,0.60
2023-01-09T12:32:08.281Z,0.57
2023-01-09T12:34:47.587Z,0.60
2023-01-09T12:37:23.924Z,0.50
2023-01-09T12:39:54.320Z,0.70
2023-01-09T12:42:28.993Z,0.67
2023-01-09T12:45:00.284Z,0.50
2023-01-09T12:47:38.205Z,0.43
2023-01-09T12:50:10.276Z,0.60
2023-01-09T12:52:40.243Z,0.80
2023-01-09T12:55:13.998Z,0.93
2023-01-09T12:57:43.806Z,0.50
2023-01-09T13:00:16.046Z,0.33
2023-01-09T13:02:45.954Z,0.50
2023-01-09T13:05:17.108Z,0.60
2023-01-09T13:07:45.840Z,0.50
2023-01-09T13:10:19.171Z,1.40
2023-01-09T13:12:49.083Z,0.97
2023-01-09T13:15:22.073Z,0.50
2023-01-09T13:17:51.672Z,0.60
2023-01-09T13:20:20.991Z,0.40
2023-01-09T13:22:50.682Z,0.70
2023-01-09T13:25:29.962Z,0.40
2023-01-09T13:28:01.005Z,0.60
2023-01-09T13:30:37.834Z,0.60
2023-01-09T13:33:13.018Z,0.60
2023-01-09T13:35:48.626Z,0.80
2023-01-09T13:38:18.058Z,0.57
2023-01-09T13:40:45.420Z,0.63
2023-01-09T13:43:14.846Z,0.50
2023-01-09T13:45:42.254Z,0.47
2023-01-09T13:48:26.149Z,0.60
2023-01-09T13:50:55.784Z,1.03
2023-01-09T13:53:42.113Z,0.50
2023-01-09T13:56:09.460Z,0.50
2023-01-09T13:58:55.374Z,0.50
2023-01-09T14:01:43.302Z,0.50
2023-01-09T14:04:38.096Z,0.80
2023-01-09T14:07:16.650Z,0.93
2023-01-09T14:09:47.486Z,0.90
2023-01-09T14:12:16.427Z,0.57
2023-01-09T14:14:46.125Z,0.50
2023-01-09T14:17:19.719Z,0.50
2023-01-09T14:19:47.092Z,0.50
2023-01-09T14:22:25.614Z,0.70
2023-01-09T14:24:56.135Z,0.50
2023-01-09T14:27:42.138Z,0.60
2023-01-09T14:30:29.672Z,0.67
2023-01-09T14:32:58.932Z,0.77
2023-01-09T14:35:27.933Z,0.70
2023-01-09T14:38:04.244Z,0.60
2023-01-09T14:40:32.353Z,0.70
2023-01-09T14:43:01.988Z,0.73
2023-01-09T14:45:31.463Z,0.80
2023-01-09T14:48:02.613Z,0.50
2023-01-09T14:50:33.161Z,0.50
2023-01-09T14:53:03.339Z,0.80
2023-01-09T14:55:32.535Z,0.60
2023-01-09T14:58:10.749Z,0.57
2023-01-09T15:00:38.153Z,1.00
2023-01-09T15:03:06.899Z,0.80
2023-01-09T15:05:34.352Z,0.80
2023-01-09T15:08:04.159Z,0.53
2023-01-09T15:10:32.219Z,0.70
2023-01-09T15:13:01.282Z,0.70
2023-01-09T15:15:28.935Z,0.50
2023-01-09T15:17:57.637Z,0.60
2023-01-09T15:20:28.789Z,0.60
2023-01-09T15:22:56.833Z,0.73
2023-01-09T15:25:34.016Z,0.80
2023-01-09T15:28:23.081Z,0.97
2023-01-09T15:30:54.020Z,1.60
2023-01-09T15:33:21.380Z,1.10
2023-01-09T15:35:51.556Z,1.03
2023-01-09T15:38:21.205Z,0.70
2023-01-09T15:40:53.559Z,0.70
2023-01-09T15:43:21.109Z,0.77
2023-01-09T15:45:49.068Z,0.57
2023-01-09T15:48:21.772Z,0.93
2023-01-09T15:50:51.615Z,0.87
2023-01-09T15:53:20.065Z,0.80
2023-01-09T15:56:02.601Z,0.80
2023-01-09T15:58:33.022Z,0.97
2023-01-09T16:01:01.257Z,1.10
2023-01-09T16:03:28.811Z,1.07
2023-01-09T16:06:05.358Z,0.90
2023-01-09T16:08:34.806Z,0.80
2023-01-09T16:11:03.466Z,0.90
2023-01-09T16:13:32.127Z,1.10
2023-01-09T16:16:00.399Z,0.67
2023-01-09T16:18:35.448Z,1.20
2023-01-09T16:21:17.673Z,1.10
2023-01-09T16:23:53.422Z,1.10
2023-01-09T16:26:21.862Z,0.70
2023-01-09T16:28:49.210Z,0.70
2023-01-09T16:31:20.155Z,0.80
2023-01-09T16:33:52.062Z,1.20
2023-01-09T16:36:21.135Z,1.30
2023-01-09T16:38:48.727Z,0.80
2023-01-09T16:41:38.983Z,0.70
2023-01-09T16:44:09.645Z,1.00
2023-01-09T16:46:38.827Z,0.90
2023-01-09T16:49:07.108Z,0.70
2023-01-09T16:51:34.436Z,0.70
2023-01-09T16:54:01.788Z,0.70
2023-01-09T16:56:31.003Z,0.80
2023-01-09T16:58:58.468Z,2.10
2023-01-09T17:01:25.928Z,1.90
2023-01-09T17:03:53.636Z,1.60
2023-01-09T17:06:23.937Z,1.10
2023-01-09T17:08:52.162Z,1.50
2023-01-09T17:11:20.908Z,1.40
2023-01-09T17:13:49.804Z,1.07
2023-01-09T17:16:17.627Z,1.13
2023-01-09T17:18:45.245Z,1.50
2023-01-09T17:21:17.552Z,1.20
2023-01-09T17:23:45.333Z,1.30
2023-01-09T17:26:35.159Z,1.17
2023-01-09T17:29:04.477Z,1.10
2023-01-09T17:31:32.247Z,1.77
2023-01-09T17:33:59.938Z,1.90
2023-01-09T17:36:28.541Z,1.87
2023-01-09T17:38:55.987Z,1.40
2023-01-09T17:41:24.058Z,1.67
2023-01-09T17:43:51.773Z,1.20
2023-01-09T17:46:27.065Z,1.30
2023-01-09T17:48:54.573Z,1.10
2023-01-09T17:51:22.038Z,0.83
2023-01-09T17:53:49.687Z,1.50
2023-01-09T17:56:18.196Z,1.20
2023-01-09T17:58:46.532Z,1.10
2023-01-09T18:01:14.471Z,1.10
2023-01-09T18:03:43.405Z,1.10
2023-01-09T18:06:11.861Z,1.07
2023-01-09T18:08:39.716Z,1.00
2023-01-09T18:11:08.016Z,1.20
2023-01-09T18:13:35.348Z,1.40
2023-01-09T18:16:02.771Z,1.17
2023-01-09T18:18:30.669Z,1.53
2023-01-09T18:20:59.485Z,2.30
2023-01-09T18:23:26.802Z,3.63
2023-01-09T18:25:54.138Z,3.20
2023-01-09T18:28:21.496Z,4.63
2023-01-09T18:30:50.734Z,5.80
2023-01-09T18:33:18.371Z,2.07
2023-01-09T18:35:45.982Z,2.00
2023-01-09T18:38:15.547Z,1.70
2023-01-09T18:40:42.899Z,1.63
2023-01-09T18:43:10.305Z,1.90
2023-01-09T18:45:38.282Z,1.90
2023-01-09T18:48:06.040Z,2.07
2023-01-09T18:50:33.345Z,2.30
2023-01-09T18:53:00.731Z,2.53
2023-01-09T18:55:29.478Z,2.00
2023-01-09T18:57:57.101Z,2.37
2023-01-09T19:00:24.691Z,2.70
2023-01-09T19:02:52.205Z,2.30
2023-01-09T19:05:19.563Z,2.20
2023-01-09T19:07:47.207Z,2.10
2023-01-09T19:10:15.076Z,2.30
2023-01-09T19:12:43.836Z,2.37
2023-01-09T19:15:11.854Z,2.40
2023-01-09T19:17:39.292Z,2.03
2023-01-09T19:20:07.769Z,2.30
2023-01-09T19:22:35.197Z,1.93
2023-01-09T19:25:02.555Z,2.03
2023-01-09T19:27:30.283Z,2.40
2023-01-09T19:29:59.235Z,2.90
2023-01-09T19:32:26.572Z,5.70
2023-01-09T19:34:53.904Z,4.20
2023-01-09T19:37:21.521Z,4.07
2023-01-09T19:39:48.868Z,2.80
2023-01-09T19:42:16.304Z,2.50
2023-01-09T19:44:43.696Z,2.20
2023-01-09T19:47:14.065Z,2.17
2023-01-09T19:49:41.455Z,2.40
2023-01-09T19:52:08.806Z,3.23
2023-01-09T19:54:36.396Z,2.40
2023-01-09T19:57:03.838Z,2.67
2023-01-09T19:59:31.534Z,2.87
2023-01-09T20:01:58.937Z,2.63
2023-01-09T20:04:29.623Z,2.70
2023-01-09T20:06:56.969Z,2.60
2023-01-09T20:09:27.420Z,2.63
2023-01-09T20:11:54.891Z,2.70
2023-01-09T20:14:22.633Z,2.80
2023-01-09T20:16:52.277Z,2.90
2023-01-09T20:19:19.892Z,3.00
2023-01-09T20:21:49.193Z,3.37
2023-01-09T20:24:17.478Z,2.83
2023-01-09T20:26:46.267Z,2.87
2023-01-09T20:29:13.754Z,3.90
2023-01-09T20:31:41.180Z,14.53
2023-01-09T20:34:08.718Z,8.57
2023-01-09T20:36:36.123Z,4.30
2023-01-09T20:39:05.709Z,3.40
2023-01-09T20:41:33.079Z,3.57
2023-01-09T20:44:01.290Z,3.23
2023-01-09T20:46:29.426Z,3.47
2023-01-09T20:48:57.286Z,4.30
2023-01-09T20:51:24.682Z,4.50
2023-01-09T20:53:55.645Z,4.90
2023-01-09T20:56:25.252Z,4.17
2023-01-09T20:58:52.685Z,3.93
2023-01-09T21:01:20.374Z,3.93
2023-01-09T21:03:47.789Z,3.80
2023-01-09T21:06:17.259Z,3.70
2023-01-09T21:08:45.112Z,3.30
2023-01-09T21:11:12.722Z,2.87
2023-01-09T21:13:41.560Z,3.50
2023-01-09T21:16:10.150Z,3.53
2023-01-09T21:18:37.921Z,3.80
2023-01-09T21:21:06.009Z,3.67
2023-01-09T21:23:33.714Z,3.67
2023-01-09T21:26:01.501Z,2.30
2023-01-09T21:28:31.306Z,2.30
2023-01-09T21:30:59.969Z,2.83
2023-01-09T21:33:27.320Z,2.67
2023-01-09T21:35:54.995Z,2.80
2023-01-09T21:38:22.833Z,2.13
2023-01-09T21:40:51.317Z,2.47
2023-01-09T21:43:57.802Z,2.10
2023-01-09T21:46:43.883Z,2.40
2023-01-09T21:49:11.213Z,1.70
2023-01-09T21:51:41.113Z,1.60
2023-01-09T21:54:08.691Z,2.50
2023-01-09T21:56:36.115Z,2.10
2023-01-09T21:59:03.936Z,4.90
2023-01-09T22:01:32.697Z,5.27
2023-01-09T22:04:00.228Z,3.40
2023-01-09T22:06:28.305Z,4.70
2023-01-09T22:08:56.326Z,2.00
2023-01-09T22:11:23.873Z,2.60
2023-01-09T22:13:52.072Z,2.17
2023-01-09T22:16:19.797Z,1.70
2023-01-09T22:18:50.035Z,1.90
2023-01-09T22:21:17.465Z,2.60
2023-01-09T22:23:44.909Z,2.10
2023-01-09T22:26:13.397Z,2.80
2023-01-09T22:28:40.802Z,3.40
2023-01-09T22:31:09.562Z,3.67
2023-01-09T22:33:36.911Z,3.53
2023-01-09T22:36:09.282Z,4.20
2023-01-09T22:38:37.189Z,4.07
2023-01-09T22:41:04.640Z,4.20
2023-01-09T22:43:32.542Z,4.53
2023-01-09T22:46:00.714Z,4.27
2023-01-09T22:48:31.375Z,4.80
2023-01-09T22:51:01.816Z,5.10
2023-01-09T22:53:30.806Z,4.97
2023-01-09T22:55:58.597Z,4.97
2023-01-09T22:58:26.464Z,4.50
2023-01-09T23:00:54.113Z,5.10
2023-01-09T23:03:21.573Z,4.57
2023-01-09T23:05:49.194Z,4.87
2023-01-09T23:08:16.704Z,5.03
2023-01-09T23:10:45.409Z,4.73
2023-01-09T23:13:12.754Z,4.80
2023-01-09T23:15:40.123Z,5.23
2023-01-09T23:18:07.700Z,5.67
2023-01-09T23:20:35.043Z,5.33
2023-01-09T23:23:02.502Z,5.13
2023-01-09T23:25:29.840Z,4.90
2023-01-09T23:27:58.532Z,4.83
2023-01-09T23:30:25.917Z,4.63
2023-01-09T23:32:53.248Z,4.77
2023-01-09T23:35:20.601Z,5.00
2023-01-09T23:37:47.939Z,4.70
2023-01-09T23:40:15.353Z,5.17
2023-01-09T23:43:00.092Z,4.40
2023-01-09T23:45:28.860Z,4.23
2023-01-09T23:47:56.236Z,4.53
2023-01-09T23:50:23.590Z,4.23
2023-01-09T23:52:50.945Z,4.70
2023-01-09T23:55:19.318Z,4.37
2023-01-09T23:57:46.918Z,4.07
